createdAt,value
2023-03-11T00:00:37.972Z,99876.00
2023-03-11T00:03:06.389Z,99880.13
2023-03-11T00:05:35.522Z,99886.09
2023-03-11T00:08:02.780Z,99890.22
2023-03-11T00:10:34.712Z,99897.78
2023-03-11T00:13:02.371Z,99905.34
2023-03-11T00:15:29.828Z,99907.09
2023-03-11T00:17:57.675Z,99910.44
2023-03-11T00:20:29.777Z,99925.75
2023-03-11T00:22:57.004Z,99925.88
2023-03-11T00:25:25.635Z,99932.38
2023-03-11T00:27:52.045Z,99937.53
2023-03-11T00:30:19.899Z,99941.00
2023-03-11T00:32:51.915Z,99945.22
2023-03-11T00:35:24.558Z,99951.13
2023-03-11T00:37:54.517Z,99963.81
2023-03-11T00:40:22.278Z,99968.69
2023-03-11T00:42:48.676Z,99964.34
2023-03-11T00:45:15.371Z,99961.06
2023-03-11T00:47:42.074Z,99966.22
2023-03-11T00:50:12.138Z,99968.50
2023-03-11T00:52:38.897Z,99974.28
2023-03-11T00:55:06.739Z,99978.38
2023-03-11T00:57:33.359Z,99983.25
2023-03-11T00:59:59.862Z,99991.66
2023-03-11T01:02:26.243Z,99999.00
2023-03-11T01:04:56.634Z,100006.56
2023-03-11T01:07:23.386Z,100002.19
2023-03-11T01:09:49.741Z,100011.50
2023-03-11T01:12:16.266Z,100014.84
2023-03-11T01:14:42.607Z,100019.06
2023-03-11T01:17:09.425Z,100020.06
2023-03-11T01:19:35.877Z,100026.75
2023-03-11T01:22:02.375Z,100030.94
2023-03-11T01:24:28.717Z,100034.44
2023-03-11T01:26:55.239Z,100031.69
2023-03-11T01:29:21.596Z,100031.34
2023-03-11T01:31:47.968Z,100038.91
2023-03-11T01:34:14.319Z,100042.56
2023-03-11T01:36:40.798Z,100044.00
2023-03-11T01:39:07.154Z,100041.97
2023-03-11T01:41:33.865Z,100042.63
2023-03-11T01:44:00.349Z,100037.53
2023-03-11T01:47:05.663Z,100045.16
2023-03-11T01:49:31.998Z,100046.16
2023-03-11T01:52:04.043Z,100049.34
2023-03-11T01:54:41.378Z,100061.97
2023-03-11T01:57:13.172Z,100065.88
2023-03-11T01:59:47.509Z,100080.34
2023-03-11T02:02:32.093Z,100080.34
2023-03-11T02:05:01.426Z,100082.97
2023-03-11T02:07:28.385Z,100097.31
2023-03-11T02:09:54.719Z,100100.00
2023-03-11T02:12:21.370Z,100102.53
2023-03-11T02:14:50.913Z,100108.59
2023-03-11T02:17:18.056Z,100111.75
2023-03-11T02:20:13.730Z,100117.69
2023-03-11T02:22:42.329Z,100124.53
2023-03-11T02:25:19.659Z,100123.66
2023-03-11T02:27:51.531Z,100119.31
2023-03-11T02:30:18.902Z,100122.00
2023-03-11T02:32:48.359Z,100122.69
2023-03-11T02:35:15.742Z,100139.53
2023-03-11T02:37:49.951Z,100142.72
2023-03-11T02:40:22.468Z,100141.94
2023-03-11T02:42:51.462Z,100154.84
2023-03-11T02:45:20.267Z,100151.53
2023-03-11T02:47:46.760Z,100158.34
2023-03-11T02:50:15.916Z,100162.63
2023-03-11T02:52:42.443Z,100162.63
2023-03-11T02:55:11.871Z,100160.78
2023-03-11T02:57:38.574Z,100168.25
2023-03-11T03:00:15.878Z,100182.72
2023-03-11T03:02:43.963Z,100179.41
2023-03-11T03:05:11.781Z,100180.97
2023-03-11T03:07:39.156Z,100183.97
2023-03-11T03:10:06.686Z,100191.50
2023-03-11T03:12:33.111Z,100188.03
2023-03-11T03:14:59.486Z,100207.66
2023-03-11T03:17:26.172Z,100205.88
2023-03-11T03:19:52.548Z,100206.03
2023-03-11T03:22:19.029Z,100211.28
2023-03-11T03:24:45.449Z,100209.59
2023-03-11T03:27:11.939Z,100209.53
2023-03-11T03:29:38.273Z,100221.28
2023-03-11T03:32:04.989Z,100223.66
2023-03-11T03:34:31.362Z,100221.81
2023-03-11T03:36:57.874Z,100239.69
2023-03-11T03:39:24.234Z,100243.75
2023-03-11T03:41:50.631Z,100249.34
2023-03-11T03:44:16.962Z,100258.50
2023-03-11T03:46:43.456Z,100252.69
2023-03-11T03:49:09.807Z,100255.13
2023-03-11T03:51:36.181Z,100265.28
2023-03-11T03:54:02.553Z,100263.56
2023-03-11T03:56:28.968Z,100270.44
2023-03-11T03:58:55.311Z,100286.81
2023-03-11T04:01:21.755Z,100281.41
2023-03-11T04:03:48.161Z,100283.88
2023-03-11T04:06:24.414Z,100279.41
2023-03-11T04:08:52.022Z,100289.03
2023-03-11T04:11:18.721Z,100285.69
2023-03-11T04:13:45.381Z,100290.84
2023-03-11T04:16:21.443Z,100292.06
2023-03-11T04:18:47.831Z,100292.06
2023-03-11T04:21:14.596Z,100292.59
2023-03-11T04:23:40.928Z,100286.50
2023-03-11T04:26:07.486Z,100285.09
2023-03-11T04:28:33.832Z,100295.78
2023-03-11T04:31:00.428Z,100299.22
2023-03-11T04:33:26.802Z,100309.19
2023-03-11T04:35:53.320Z,100311.63
2023-03-11T04:38:19.663Z,100317.59
2023-03-11T04:40:46.229Z,100316.72
2023-03-11T04:43:12.619Z,100324.16
2023-03-11T04:45:40.172Z,100322.06
2023-03-11T04:48:06.698Z,100323.50
2023-03-11T04:50:33.417Z,100335.66
2023-03-11T04:52:59.748Z,100334.84
2023-03-11T04:55:26.359Z,100354.47
2023-03-11T04:57:52.691Z,100359.63
2023-03-11T05:00:24.747Z,100352.53
2023-03-11T05:02:51.211Z,100354.28
2023-03-11T05:05:19.463Z,100356.03
2023-03-11T05:07:46.502Z,100359.19
2023-03-11T05:10:13.662Z,100372.81
2023-03-11T05:12:40.152Z,100384.03
2023-03-11T05:15:07.276Z,100387.09
2023-03-11T05:17:33.603Z,100383.69
2023-03-11T05:20:00.118Z,100385.97
2023-03-11T05:22:26.501Z,100384.38
2023-03-11T05:24:53.048Z,100386.41
2023-03-11T05:27:19.887Z,100398.75
2023-03-11T05:29:46.950Z,100404.00
2023-03-11T05:32:14.118Z,100416.16
2023-03-11T05:34:40.817Z,100413.97
2023-03-11T05:37:07.627Z,100416.69
2023-03-11T05:39:34.962Z,100423.59
2023-03-11T05:42:01.387Z,100431.31
2023-03-11T05:44:28.230Z,100438.13
2023-03-11T05:46:54.705Z,100440.56
2023-03-11T05:49:21.721Z,100443.28
2023-03-11T05:51:49.188Z,100438.38
2023-03-11T05:54:15.700Z,100436.72
2023-03-11T05:56:43.838Z,100434.00
2023-03-11T05:59:10.971Z,100447.56
2023-03-11T06:01:37.744Z,100444.25
2023-03-11T06:04:04.687Z,100441.47
2023-03-11T06:06:31.228Z,100447.56
2023-03-11T06:08:57.989Z,100440.56
2023-03-11T06:11:25.616Z,100455.63
2023-03-11T06:13:54.439Z,100456.38
2023-03-11T06:16:22.113Z,100458.06
2023-03-11T06:18:48.671Z,100470.06
2023-03-11T06:21:20.674Z,100465.16
2023-03-11T06:23:47.212Z,100470.16
2023-03-11T06:26:16.351Z,100473.47
2023-03-11T06:28:44.023Z,100482.31
2023-03-11T06:31:14.539Z,100481.50
2023-03-11T06:33:41.242Z,100490.19
2023-03-11T06:36:08.152Z,100495.28
2023-03-11T06:38:37.290Z,100497.81
2023-03-11T06:41:05.113Z,100508.22
2023-03-11T06:43:32.861Z,100510.09
2023-03-11T06:45:59.987Z,100510.78
2023-03-11T06:48:26.514Z,100520.06
2023-03-11T06:50:57.668Z,100522.31
2023-03-11T06:53:24.652Z,100530.91
2023-03-11T06:56:09.000Z,100530.22
2023-03-11T06:58:36.856Z,100531.25
2023-03-11T07:01:13.067Z,100536.69
2023-03-11T07:03:40.216Z,100541.31
2023-03-11T07:06:11.251Z,100545.00
2023-03-11T07:08:37.729Z,100543.78
2023-03-11T07:11:07.140Z,100548.84
2023-03-11T07:13:34.061Z,100551.13
2023-03-11T07:16:02.816Z,100548.13
2023-03-11T07:18:29.249Z,100557.84
2023-03-11T07:20:55.614Z,100560.38
2023-03-11T07:23:21.950Z,100566.03
2023-03-11T07:25:48.838Z,100571.53
2023-03-11T07:28:15.342Z,100571.81
2023-03-11T07:30:41.761Z,100575.22
2023-03-11T07:33:08.085Z,100579.09
2023-03-11T07:35:35.789Z,100583.41
2023-03-11T07:38:02.153Z,100587.00
2023-03-11T07:40:28.538Z,100588.94
2023-03-11T07:42:54.866Z,100604.00
2023-03-11T07:45:21.310Z,100596.13
2023-03-11T07:47:47.657Z,100605.94
2023-03-11T07:50:14.108Z,100607.50
2023-03-11T07:52:40.467Z,100613.81
2023-03-11T07:55:07.141Z,100626.69
2023-03-11T07:57:33.574Z,100633.25
2023-03-11T08:00:01.224Z,100628.34
2023-03-11T08:02:27.607Z,100633.25
2023-03-11T08:04:56.082Z,100633.19
2023-03-11T08:07:22.572Z,100639.88
2023-03-11T08:09:49.141Z,100641.78
2023-03-11T08:12:16.243Z,100650.59
2023-03-11T08:14:43.811Z,100653.16
2023-03-11T08:17:10.469Z,100652.34
2023-03-11T08:19:36.865Z,100655.03
2023-03-11T08:22:03.968Z,100660.00
2023-03-11T08:24:30.469Z,100655.53
2023-03-11T08:26:57.091Z,100657.72
2023-03-11T08:29:24.968Z,100652.88
2023-03-11T08:31:51.302Z,100659.06
2023-03-11T08:34:18.034Z,100660.78
2023-03-11T08:36:44.490Z,100660.81
2023-03-11T08:39:10.913Z,100665.88
2023-03-11T08:41:37.290Z,100678.25
2023-03-11T08:44:04.041Z,100685.31
2023-03-11T08:46:36.414Z,100675.97
2023-03-11T08:49:03.561Z,100683.38
2023-03-11T08:51:31.645Z,100692.25
2023-03-11T08:53:58.986Z,100690.56
2023-03-11T08:56:25.714Z,100695.75
2023-03-11T08:58:52.832Z,100695.97
2023-03-11T09:01:20.222Z,100698.28
2023-03-11T09:03:46.835Z,100705.44
2023-03-11T09:06:15.478Z,100692.91
2023-03-11T09:08:43.075Z,100710.78
2023-03-11T09:11:09.946Z,100711.19
2023-03-11T09:13:36.343Z,100711.19
2023-03-11T09:16:05.727Z,100716.88
2023-03-11T09:18:32.278Z,100721.13
2023-03-11T09:21:00.401Z,100721.47
2023-03-11T09:23:26.781Z,100723.38
2023-03-11T09:25:53.113Z,100723.53
2023-03-11T09:28:19.626Z,100722.06
2023-03-11T09:30:45.997Z,100721.34
2023-03-11T09:33:12.371Z,100723.69
2023-03-11T09:35:39.288Z,100733.97
2023-03-11T09:38:05.709Z,100728.94
2023-03-11T09:40:57.882Z,100730.41
2023-03-11T09:43:58.369Z,100736.25
2023-03-11T09:46:44.746Z,100730.91
2023-03-11T09:49:20.302Z,100735.88
2023-03-11T09:51:57.633Z,100742.06
2023-03-11T09:54:24.461Z,100735.59
2023-03-11T09:56:51.067Z,100737.31
2023-03-11T09:59:27.700Z,100747.44
2023-03-11T10:01:54.052Z,100746.16
2023-03-11T10:04:42.057Z,100743.97
2023-03-11T10:07:21.631Z,100747.03
2023-03-11T10:09:56.602Z,100753.16
2023-03-11T10:12:44.093Z,100757.03
2023-03-11T10:15:24.443Z,100754.84
2023-03-11T10:18:02.787Z,100755.94
2023-03-11T10:20:36.319Z,100757.38
2023-03-11T10:23:24.385Z,100759.16
2023-03-11T10:26:02.570Z,100756.09
2023-03-11T10:28:51.749Z,100749.66
2023-03-11T10:31:25.742Z,100751.78
2023-03-11T10:33:57.845Z,100753.16
2023-03-11T10:36:29.455Z,100758.50
2023-03-11T10:38:56.208Z,100762.59
2023-03-11T10:41:42.120Z,100762.81
2023-03-11T10:44:18.032Z,100761.69
2023-03-11T10:46:45.192Z,100754.84
2023-03-11T10:49:16.728Z,100762.25
2023-03-11T10:51:49.040Z,100757.41
2023-03-11T10:54:28.097Z,100753.97
2023-03-11T10:57:00.409Z,100760.88
2023-03-11T10:59:46.108Z,100755.28
2023-03-11T11:02:32.792Z,100761.31
2023-03-11T11:05:05.806Z,100750.44
2023-03-11T11:07:37.478Z,100759.75
2023-03-11T11:10:13.397Z,100755.53
2023-03-11T11:12:51.614Z,100754.53
2023-03-11T11:15:55.711Z,100760.41
2023-03-11T11:18:26.854Z,100745.38
2023-03-11T11:20:56.645Z,100748.88
2023-03-11T11:23:49.195Z,100755.28
2023-03-11T11:26:23.444Z,100742.63
2023-03-11T11:29:14.959Z,100744.91
2023-03-11T11:31:44.824Z,100748.88
2023-03-11T11:34:41.101Z,100742.25
2023-03-11T11:37:12.798Z,100743.19
2023-03-11T11:39:51.564Z,100736.91
2023-03-11T11:42:20.310Z,100740.75
2023-03-11T11:44:56.557Z,100750.06
2023-03-11T11:47:33.164Z,100747.75
2023-03-11T11:50:04.982Z,100738.47
2023-03-11T11:52:36.315Z,100735.41
2023-03-11T11:55:17.709Z,100731.03
2023-03-11T11:57:44.077Z,100732.06
2023-03-11T12:00:20.662Z,100726.28
2023-03-11T12:03:30.570Z,100730.16
2023-03-11T12:06:06.067Z,100730.63
2023-03-11T12:08:50.828Z,100736.28
2023-03-11T12:11:23.169Z,100729.75
2023-03-11T12:14:02.069Z,100729.75
2023-03-11T12:16:55.656Z,100725.84
2023-03-11T12:19:31.417Z,100739.41
2023-03-11T12:22:34.760Z,100729.25
2023-03-11T12:25:27.170Z,100724.56
2023-03-11T12:28:12.498Z,100729.50
2023-03-11T12:30:48.130Z,100724.00
2023-03-11T12:33:41.325Z,100720.34
2023-03-11T12:36:28.855Z,100728.19
2023-03-11T12:38:56.054Z,100730.19
2023-03-11T12:41:39.827Z,100726.13
2023-03-11T12:44:22.458Z,100732.16
2023-03-11T12:46:55.373Z,100729.66
2023-03-11T12:49:26.712Z,100738.56
2023-03-11T12:52:11.071Z,100742.84
2023-03-11T12:54:39.664Z,100748.13
2023-03-11T12:57:18.221Z,100735.09
2023-03-11T13:00:02.627Z,100735.97
2023-03-11T13:02:53.800Z,100741.69
2023-03-11T13:05:29.821Z,100736.09
2023-03-11T13:08:21.129Z,100745.41
2023-03-11T13:10:50.109Z,100741.75
2023-03-11T13:13:33.390Z,100739.47
2023-03-11T13:16:15.288Z,100732.56
2023-03-11T13:18:43.534Z,100731.06
2023-03-11T13:21:27.981Z,100737.44
2023-03-11T13:24:19.134Z,100732.31
2023-03-11T13:26:52.983Z,100734.03
2023-03-11T13:29:54.916Z,100745.38
2023-03-11T13:32:26.052Z,100742.41
2023-03-11T13:35:23.105Z,100748.34
2023-03-11T13:38:01.709Z,100730.03
2023-03-11T13:40:40.764Z,100734.25
2023-03-11T13:43:23.910Z,100744.84
2023-03-11T13:45:58.024Z,100742.09
2023-03-11T13:48:42.109Z,100744.72
2023-03-11T13:51:16.953Z,100746.09
2023-03-11T13:54:03.661Z,100756.13
2023-03-11T13:56:39.422Z,100753.22
2023-03-11T13:59:17.902Z,100748.13
2023-03-11T14:01:56.141Z,100753.88
2023-03-11T14:04:29.228Z,100742.50
2023-03-11T14:06:55.936Z,100753.16
2023-03-11T14:09:24.251Z,100757.69
2023-03-11T14:11:53.439Z,100757.25
2023-03-11T14:14:35.670Z,100758.03
2023-03-11T14:17:04.002Z,100763.59
2023-03-11T14:19:30.398Z,100766.72
2023-03-11T14:21:56.742Z,100758.72
2023-03-11T14:24:31.437Z,100754.88
2023-03-11T14:27:01.705Z,100754.72
2023-03-11T14:29:37.921Z,100743.97
2023-03-11T14:32:26.029Z,100749.75
2023-03-11T14:34:52.456Z,100749.84
2023-03-11T14:37:36.537Z,100751.75
2023-03-11T14:40:04.110Z,100759.19
2023-03-11T14:42:39.745Z,100769.16
2023-03-11T14:45:18.578Z,100770.69
2023-03-11T14:48:00.140Z,100774.75
2023-03-11T14:50:30.591Z,100772.66
2023-03-11T14:53:35.472Z,100784.59
2023-03-11T14:56:08.502Z,100782.06
2023-03-11T14:58:41.674Z,100771.06
2023-03-11T15:01:21.968Z,100770.53
2023-03-11T15:03:56.178Z,100773.00
2023-03-11T15:06:29.182Z,100770.06
2023-03-11T15:09:00.722Z,100763.38
2023-03-11T15:11:28.580Z,100763.41
2023-03-11T15:14:14.735Z,100755.97
2023-03-11T15:16:41.388Z,100763.03
2023-03-11T15:19:23.581Z,100772.75
2023-03-11T15:21:54.359Z,100756.00
2023-03-11T15:24:23.012Z,100755.19
2023-03-11T15:27:01.299Z,100752.03
2023-03-11T15:29:29.420Z,100750.97
2023-03-11T15:31:57.369Z,100755.38
2023-03-11T15:34:25.613Z,100775.50
2023-03-11T15:36:52.981Z,100774.25
2023-03-11T15:39:28.702Z,100774.53
2023-03-11T15:42:11.185Z,100782.94
2023-03-11T15:44:58.404Z,100780.41
2023-03-11T15:47:25.133Z,100792.41
2023-03-11T15:49:51.557Z,100790.28
2023-03-11T15:52:19.335Z,100792.53
2023-03-11T15:54:55.007Z,100794.00
2023-03-11T15:57:26.121Z,100794.22
2023-03-11T15:59:54.752Z,100794.22
2023-03-11T16:02:26.906Z,100796.56
2023-03-11T16:04:53.458Z,100801.63
2023-03-11T16:07:29.478Z,100797.06
2023-03-11T16:10:04.446Z,100800.41
2023-03-11T16:12:31.290Z,100805.78
2023-03-11T16:14:57.622Z,100802.69
2023-03-11T16:17:24.544Z,100803.28
2023-03-11T16:19:50.882Z,100809.19
2023-03-11T16:22:20.321Z,100803.59
2023-03-11T16:24:49.776Z,100808.84
2023-03-11T16:27:17.985Z,100813.31
2023-03-11T16:29:47.461Z,100817.63
2023-03-11T16:32:13.978Z,100816.53
2023-03-11T16:34:40.722Z,100823.06
2023-03-11T16:37:07.829Z,100824.00
2023-03-11T16:39:35.101Z,100823.66
2023-03-11T16:42:01.919Z,100818.91
2023-03-11T16:44:28.339Z,100822.78
2023-03-11T16:46:54.973Z,100826.94
2023-03-11T16:49:21.510Z,100824.25
2023-03-11T16:51:48.059Z,100833.44
2023-03-11T16:54:14.396Z,100829.81
2023-03-11T16:56:41.894Z,100838.84
2023-03-11T16:59:08.397Z,100842.63
2023-03-11T17:01:38.483Z,100840.66
2023-03-11T17:04:06.726Z,100841.38
2023-03-11T17:06:33.689Z,100845.47
2023-03-11T17:09:00.372Z,100842.91
2023-03-11T17:11:29.562Z,100844.34
2023-03-11T17:14:03.281Z,100851.22
2023-03-11T17:16:40.312Z,100850.06
2023-03-11T17:19:06.692Z,100850.63
2023-03-11T17:21:33.151Z,100856.28
2023-03-11T17:23:59.906Z,100858.63
2023-03-11T17:26:31.093Z,100855.16
2023-03-11T17:28:57.582Z,100858.88
2023-03-11T17:31:24.157Z,100866.47
2023-03-11T17:33:50.738Z,100866.94
2023-03-11T17:36:18.175Z,100864.16
2023-03-11T17:38:46.676Z,100865.81
2023-03-11T17:41:16.499Z,100862.94
2023-03-11T17:43:43.430Z,100864.41
2023-03-11T17:46:14.376Z,100874.91
2023-03-11T17:48:45.857Z,100873.22
2023-03-11T17:51:15.601Z,100880.09
2023-03-11T17:53:45.778Z,100870.59
2023-03-11T17:56:14.392Z,100878.97
2023-03-11T17:58:40.772Z,100871.97
2023-03-11T18:01:35.490Z,100881.34
2023-03-11T18:04:02.100Z,100871.22
2023-03-11T18:06:29.028Z,100872.91
2023-03-11T18:08:55.395Z,100877.94
2023-03-11T18:11:24.598Z,100882.00
2023-03-11T18:13:51.919Z,100884.22
2023-03-11T18:16:28.984Z,100885.72
2023-03-11T18:18:58.400Z,100892.91
2023-03-11T18:21:28.007Z,100889.38
2023-03-11T18:23:59.774Z,100892.91
2023-03-11T18:26:28.102Z,100890.91
2023-03-11T18:28:55.447Z,100896.63
2023-03-11T18:31:23.769Z,100899.88
2023-03-11T18:33:58.784Z,100901.56
2023-03-11T18:36:28.156Z,100900.72
2023-03-11T18:38:56.872Z,100902.44
2023-03-11T18:41:24.442Z,100903.97
2023-03-11T18:43:57.269Z,100908.97
2023-03-11T18:46:25.452Z,100905.81
2023-03-11T18:48:57.344Z,100899.72
2023-03-11T18:51:24.930Z,100905.66
2023-03-11T18:53:51.266Z,100902.66
2023-03-11T18:56:18.093Z,100902.31
2023-03-11T18:58:44.633Z,100911.13
2023-03-11T19:01:14.230Z,100903.06
2023-03-11T19:03:48.145Z,100899.69
2023-03-11T19:06:14.639Z,100896.19
2023-03-11T19:08:40.990Z,100905.50
2023-03-11T19:11:08.909Z,100904.47
2023-03-11T19:13:46.253Z,100912.81
2023-03-11T19:16:14.623Z,100900.16
2023-03-11T19:18:41.175Z,100903.59
2023-03-11T19:21:08.908Z,100900.06
2023-03-11T19:23:35.255Z,100902.69
2023-03-11T19:26:03.466Z,100896.56
2023-03-11T19:28:30.397Z,100901.41
2023-03-11T19:30:58.468Z,100904.28
2023-03-11T19:33:25.646Z,100904.81
2023-03-11T19:35:57.370Z,100907.47
2023-03-11T19:38:24.494Z,100910.78
2023-03-11T19:40:55.008Z,100911.84
2023-03-11T19:43:21.529Z,100913.69
2023-03-11T19:45:50.288Z,100912.19
2023-03-11T19:48:17.294Z,100916.34
2023-03-11T19:50:43.841Z,100917.28
2023-03-11T19:53:10.218Z,100922.47
2023-03-11T19:55:36.674Z,100926.88
2023-03-11T19:58:03.035Z,100927.47
2023-03-11T20:00:30.518Z,100933.28
2023-03-11T20:02:56.901Z,100931.72
2023-03-11T20:05:23.299Z,100942.00
2023-03-11T20:07:49.652Z,100934.50
2023-03-11T20:10:17.607Z,100939.69
2023-03-11T20:12:59.674Z,100937.41
2023-03-11T20:15:28.374Z,100939.56
2023-03-11T20:17:54.758Z,100933.59
2023-03-11T20:20:21.800Z,100942.22
2023-03-11T20:22:48.393Z,100936.25
2023-03-11T20:25:16.135Z,100934.41
2023-03-11T20:27:43.203Z,100939.31
2023-03-11T20:30:10.406Z,100948.75
2023-03-11T20:32:36.872Z,100937.16
2023-03-11T20:35:03.473Z,100937.47
2023-03-11T20:37:30.542Z,100952.00
2023-03-11T20:39:56.997Z,100950.63
2023-03-11T20:42:23.650Z,100956.47
2023-03-11T20:44:54.293Z,100959.03
2023-03-11T20:47:20.793Z,100955.91
2023-03-11T20:49:47.250Z,100965.06
2023-03-11T20:52:13.658Z,100963.47
2023-03-11T20:54:40.377Z,100969.09
2023-03-11T20:57:07.629Z,100970.66
2023-03-11T20:59:34.242Z,100970.41
2023-03-11T21:02:00.960Z,100968.66
2023-03-11T21:04:27.735Z,100968.06
2023-03-11T21:06:55.295Z,100972.81
2023-03-11T21:09:21.778Z,100970.13
2023-03-11T21:11:48.220Z,100974.06
2023-03-11T21:14:17.010Z,100973.88
2023-03-11T21:16:45.286Z,100968.44
2023-03-11T21:19:13.627Z,100976.97
2023-03-11T21:21:40.638Z,100980.50
2023-03-11T21:24:07.702Z,100976.88
2023-03-11T21:26:34.643Z,100979.34
2023-03-11T21:29:01.150Z,100984.19
2023-03-11T21:31:29.424Z,100989.09
2023-03-11T21:33:58.139Z,100988.59
2023-03-11T21:36:24.561Z,100983.84
2023-03-11T21:38:51.190Z,100986.38
2023-03-11T21:41:19.067Z,100980.69
2023-03-11T21:43:46.682Z,100983.75
2023-03-11T21:46:15.580Z,100989.53
2023-03-11T21:48:42.241Z,100986.13
2023-03-11T21:51:08.761Z,100987.81
2023-03-11T21:53:35.722Z,100986.03
2023-03-11T21:56:03.730Z,100987.00
2023-03-11T21:58:30.246Z,100982.06
2023-03-11T22:00:56.717Z,100982.31
2023-03-11T22:03:23.418Z,100991.22
2023-03-11T22:05:56.727Z,100992.00
2023-03-11T22:08:23.391Z,100994.72
2023-03-11T22:10:49.715Z,101000.63
2023-03-11T22:13:16.083Z,100998.06
2023-03-11T22:15:42.522Z,100996.41
2023-03-11T22:18:09.542Z,100991.38
2023-03-11T22:20:36.652Z,100999.19
2023-03-11T22:23:03.406Z,100994.81
2023-03-11T22:25:29.779Z,100997.81
2023-03-11T22:27:56.538Z,100990.59
2023-03-11T22:30:23.412Z,100996.41
2023-03-11T22:32:50.047Z,100995.53
2023-03-11T22:35:17.218Z,100997.81
2023-03-11T22:37:43.600Z,100990.09
2023-03-11T22:40:10.877Z,100985.06
2023-03-11T22:42:38.119Z,100989.19
2023-03-11T22:45:05.998Z,100999.72
2023-03-11T22:47:33.236Z,101001.13
2023-03-11T22:49:59.580Z,101004.09
2023-03-11T22:52:26.155Z,100999.53
2023-03-11T22:54:52.620Z,101007.75
2023-03-11T22:57:19.122Z,101005.22
2023-03-11T22:59:45.477Z,101000.22
2023-03-11T23:02:11.931Z,101005.81
2023-03-11T23:04:38.263Z,101010.72
2023-03-11T23:07:04.771Z,101016.00
2023-03-11T23:09:31.118Z,101007.75
2023-03-11T23:11:57.534Z,101016.09
2023-03-11T23:14:37.919Z,101019.78
2023-03-11T23:17:08.567Z,101017.13
2023-03-11T23:19:34.957Z,101022.50
2023-03-11T23:22:01.323Z,101024.00
2023-03-11T23:24:27.645Z,101025.81
2023-03-11T23:26:54.280Z,101018.31
2023-03-11T23:29:20.664Z,101019.81
2023-03-11T23:31:47.030Z,101018.75
2023-03-11T23:34:13.419Z,101035.88
2023-03-11T23:36:39.927Z,101036.66
2023-03-11T23:39:06.253Z,101037.53
2023-03-11T23:41:32.665Z,101037.44
2023-03-11T23:43:59.003Z,101045.88
2023-03-11T23:46:25.456Z,101045.38
2023-03-11T23:48:51.868Z,101053.88
2023-03-11T23:51:18.241Z,101052.22
2023-03-11T23:53:44.891Z,101052.13
2023-03-11T23:56:17.345Z,101058.97
2023-03-11T23:58:44.358Z,101063.38
